Aviation Digital Data Service (ADDS)

Output produced by METARs form (1925 UTC 18 June 2019)
found at http://www.aviationweather.gov/metar/data/
 
KBOI 181853Z 27009KT 10SM CLR 27/09 A3003 RMK AO2 SLP141 T02670089
KBOI 181720Z 1818/1918 31012G20KT P6SM SKC 
     FM190300 30008KT P6SM SKC 
     FM191700 31012G20KT P6SM SKC
       
K65S 181915Z AUTO 19010G15KT 10SM CLR 24/11 A2993 RMK AO2
KBYI 181853Z AUTO 28008G18KT 10SM CLR 24/09 A3007 RMK AO2 SLP142 T02440089
KBYI 181725Z 1818/1918 29013G23KT P6SM SCT050 BKN120 
     FM190300 23006KT P6SM SCT200
       
KEUL 181856Z AUTO 28009G14KT 10SM CLR 27/09 A3002 RMK AO2 SLP146 T02720089
KEUL 181720Z 1818/1918 32012G20KT P6SM SKC 
     FM190200 31008KT P6SM SKC 
     FM191500 30012G20KT P6SM SKC
       
KLLJ 181855Z AUTO 11005KT 10SM CLR 25/07 A3005 RMK AO2 SLP112 T02500072
KCOE 181856Z AUTO 25010KT 10SM BKN047 23/11 A3002 RMK AO2 SLP168 T02330106
KCOE 181740Z 1818/1918 23012G18KT P6SM SCT060 
     FM190300 20009KT P6SM FEW250 
     FM191600 22012G20KT P6SM FEW250
       
KDIJ 181856Z AUTO 02005KT 10SM BKN100 19/09 A3016 RMK AO2 SLP169 T01890089 $
KDIJ 181725Z 1818/1918 VRB05KT P6SM BKN100 
     FM181900 26009KT P6SM VCTS BKN050CB 
     FM190500 VRB06KT P6SM VCSH SCT050 SCT080 AMD LTD TO CLD VIS AND WIND
       
KGIC 181915Z AUTO 31007KT 260V330 10SM CLR 23/12 A3007 RMK AO1
KSUN 181847Z 15007KT 10SM SCT080 21/11 A3012
KSUN 181725Z 1818/1924 13007KT P6SM FEW100 
     FM182200 14009KT P6SM VCSH SCT060 BKN090 
     FM190400 32010KT P6SM FEW070 SCT100
       
KIDA 181853Z 20012KT 10SM FEW130 FEW200 23/10 A3008 RMK AO2 SLP152 T02280100 PNO $
KIDA 181725Z 1818/1918 24008KT P6SM BKN100 
     FM181900 23011G21KT P6SM VCTS SCT050 SCT100CB 
     FM190200 VRB06KT P6SM VCSH BKN080
       
KJER 181853Z AUTO 30013KT 10SM CLR 27/09 A3008 RMK AO2 SLP147 T02670094
KJER 181720Z 1818/1918 25007KT P6SM SKC 
     FM182000 26012G20KT P6SM SKC 
     FM190300 24015KT P6SM SKC
       
KLWS 181856Z 32010G17KT 290V360 10SM CLR 28/08 A3000 RMK AO2 SLP148 T02830083
KLWS 181740Z 1818/1918 VRB04KT P6SM FEW070 
     FM181900 30012G20KT P6SM FEW070 
     FM190400 26007KT P6SM FEW250 
     FM191500 29011G18KT P6SM FEW250
       
KMYL 181851Z AUTO 27009KT 10SM CLR 23/05 A3010 RMK AO2 SLP146 T02280050
KMYL 181720Z 1818/1918 VRB04KT P6SM FEW250 
     FM182000 27009G17KT P6SM SKC 
     FM190100 33006KT P6SM SKC
       
KMAN 181915Z AUTO 31010G16KT 270V340 10SM CLR 27/07 A3002 RMK A01
K1U7 181915Z AUTO VRB05KT 10SM CLR 22/10 A3011 RMK A01
KPIH 181853Z 25015G21KT 10SM SCT070 26/08 A3008 RMK AO2 SLP146 T02560078
KPIH 181725Z 1818/1918 24011KT P6SM FEW070 SCT100 
     FM181900 25014G22KT P6SM VCTS SCT060 SCT100CB 
     FM190300 21011KT P6SM VCSH SCT080
       
KRXE 181853Z AUTO 25010KT 10SM CLR 23/09 A3007 RMK AO2 SLP148 T02280089
KSMN 181856Z AUTO 36006KT 10SM CLR 23/08 A3004 RMK AO2 SLP150 T02280083
KSMN 181720Z 1818/1918 35005KT P6SM SCT070 
     FM182100 35012G22KT P6SM BKN100 
     FM190300 35009KT P6SM SKC
       
KSZT 181915Z AUTO 23006G14KT 10SM SCT060 25/09 A2997 RMK AO2
KTWF 181853Z 31014G19KT 10SM CLR 26/08 A3008 RMK AO2 SLP137 T02560078
KTWF 181720Z 1818/1918 24012G20KT P6SM SKC 
     FM190300 23013KT P6SM SKC